createdAt,value
2023-03-07T00:03:47.570Z,-2.63
2023-03-07T00:08:56.040Z,-2.61
2023-03-07T00:13:57.836Z,-2.56
2023-03-07T00:19:00.315Z,-2.53
2023-03-07T00:24:02.309Z,-2.56
2023-03-07T00:29:04.166Z,-2.62
2023-03-07T00:34:05.913Z,-2.75
2023-03-07T00:39:08.034Z,-2.94
2023-03-07T00:44:09.907Z,-3.05
2023-03-07T00:49:12.720Z,-3.15
2023-03-07T00:54:15.103Z,-3.23
2023-03-07T00:59:17.073Z,-3.33
2023-03-07T01:04:18.878Z,-3.41
2023-03-07T01:09:20.839Z,-3.50
2023-03-07T01:14:22.603Z,-3.58
2023-03-07T01:19:24.587Z,-3.65
2023-03-07T01:24:27.749Z,-3.68
2023-03-07T01:29:29.479Z,-3.69
2023-03-07T01:34:31.357Z,-3.65
2023-03-07T01:39:33.324Z,-3.60
2023-03-07T01:45:16.875Z,-3.63
2023-03-07T01:50:19.468Z,-3.65
2023-03-07T01:55:27.500Z,-3.66
2023-03-07T02:00:29.469Z,-3.68
2023-03-07T02:05:38.944Z,-3.74
2023-03-07T02:10:42.637Z,-3.82
2023-03-07T02:15:44.450Z,-3.87
2023-03-07T02:21:11.896Z,-3.93
2023-03-07T02:26:31.005Z,-4.00
2023-03-07T02:31:32.961Z,-4.03
2023-03-07T02:36:36.887Z,-4.09
2023-03-07T02:41:39.937Z,-4.15
2023-03-07T02:46:41.661Z,-4.13
2023-03-07T02:51:43.650Z,-4.07
2023-03-07T02:56:45.317Z,-3.97
2023-03-07T03:01:47.370Z,-3.86
2023-03-07T03:06:49.690Z,-3.84
2023-03-07T03:11:51.472Z,-3.90
2023-03-07T03:16:54.074Z,-3.95
2023-03-07T03:21:57.470Z,-4.04
2023-03-07T03:26:59.246Z,-4.13
2023-03-07T03:32:01.843Z,-4.24
2023-03-07T03:37:03.614Z,-4.34
2023-03-07T03:42:05.900Z,-4.47
2023-03-07T03:47:07.618Z,-4.55
2023-03-07T03:52:09.861Z,-4.62
2023-03-07T03:57:15.310Z,-4.70
2023-03-07T04:02:17.176Z,-4.76
2023-03-07T04:07:18.888Z,-4.72
2023-03-07T04:12:20.591Z,-4.66
2023-03-07T04:17:22.423Z,-4.59
2023-03-07T04:22:24.418Z,-4.53
2023-03-07T04:27:26.171Z,-4.50
2023-03-07T04:32:28.017Z,-4.52
2023-03-07T04:37:29.852Z,-4.57
2023-03-07T04:42:31.605Z,-4.65
2023-03-07T04:47:33.399Z,-4.75
2023-03-07T04:52:35.166Z,-4.82
2023-03-07T04:57:36.863Z,-4.81
2023-03-07T05:02:38.706Z,-4.78
2023-03-07T05:07:40.377Z,-4.73
2023-03-07T05:12:42.083Z,-4.67
2023-03-07T05:17:43.836Z,-4.64
2023-03-07T05:22:46.122Z,-4.56
2023-03-07T05:27:48.495Z,-4.43
2023-03-07T05:32:50.994Z,-4.22
2023-03-07T05:37:53.171Z,-4.04
2023-03-07T05:42:54.951Z,-3.85
2023-03-07T05:47:56.931Z,-3.67
2023-03-07T05:52:58.717Z,-3.60
2023-03-07T05:58:00.721Z,-3.68
2023-03-07T06:03:03.692Z,-3.77
2023-03-07T06:08:06.697Z,-3.81
2023-03-07T06:13:21.261Z,-3.86
2023-03-07T06:18:25.446Z,-3.82
2023-03-07T06:23:30.747Z,-3.81
2023-03-07T06:28:33.034Z,-3.74
2023-03-07T06:33:34.842Z,-3.60
2023-03-07T06:38:37.135Z,-3.42
2023-03-07T06:43:38.780Z,-3.23
2023-03-07T06:48:40.565Z,-3.00
2023-03-07T06:53:43.256Z,-2.82
2023-03-07T06:58:45.372Z,-2.66
2023-03-07T07:03:47.427Z,-2.50
2023-03-07T07:08:49.601Z,-2.32
2023-03-07T07:13:51.579Z,-2.26
2023-03-07T07:18:53.377Z,-2.19
2023-03-07T07:23:57.997Z,-2.14
2023-03-07T07:28:59.780Z,-2.03
2023-03-07T07:34:01.578Z,-1.91
2023-03-07T07:39:05.501Z,-1.78
2023-03-07T07:44:07.248Z,-1.63
2023-03-07T07:49:08.976Z,-1.50
2023-03-07T07:54:10.707Z,-1.49
2023-03-07T07:59:13.400Z,-1.47
2023-03-07T08:04:15.172Z,-1.38
2023-03-07T08:09:17.066Z,-1.25
2023-03-07T08:14:18.831Z,-1.12
2023-03-07T08:19:20.709Z,-1.00
2023-03-07T08:24:32.040Z,-0.88
2023-03-07T08:29:40.437Z,-0.77
2023-03-07T08:34:42.245Z,-0.67
2023-03-07T08:39:44.296Z,-0.45
2023-03-07T08:44:46.084Z,-0.30
2023-03-07T08:49:47.846Z,-0.13
2023-03-07T08:54:49.623Z,0.01
2023-03-07T08:59:51.295Z,0.18
2023-03-07T09:04:53.651Z,0.38
2023-03-07T09:09:55.970Z,0.44
2023-03-07T09:14:57.672Z,0.53
2023-03-07T09:19:59.302Z,0.68
2023-03-07T09:25:01.080Z,0.87
2023-03-07T09:30:04.189Z,1.12
2023-03-07T09:35:07.243Z,1.35
2023-03-07T09:40:22.921Z,1.46
2023-03-07T09:45:34.080Z,1.62
2023-03-07T09:50:55.629Z,1.71
2023-03-07T09:56:03.158Z,1.81
2023-03-07T10:01:07.864Z,1.88
2023-03-07T10:06:28.697Z,2.01
2023-03-07T10:11:58.772Z,2.12
2023-03-07T10:17:19.887Z,2.21
2023-03-07T10:22:43.387Z,2.34
2023-03-07T10:27:48.738Z,2.32
2023-03-07T10:33:01.489Z,2.46
2023-03-07T10:38:18.990Z,2.55
2023-03-07T10:43:28.142Z,2.54
2023-03-07T10:48:31.760Z,2.53
2023-03-07T10:53:37.171Z,2.59
2023-03-07T10:58:41.035Z,2.63
2023-03-07T11:04:05.348Z,2.63
2023-03-07T11:09:33.531Z,2.58
2023-03-07T11:14:49.032Z,2.46
2023-03-07T11:19:57.706Z,2.41
2023-03-07T11:25:14.591Z,2.34
2023-03-07T11:30:34.431Z,2.28
2023-03-07T11:36:00.480Z,2.14
2023-03-07T11:41:37.044Z,1.95
2023-03-07T11:46:38.842Z,1.74
2023-03-07T11:52:12.222Z,1.55
2023-03-07T11:57:58.139Z,1.45
2023-03-07T12:03:29.916Z,1.44
2023-03-07T12:09:07.432Z,1.56
2023-03-07T12:14:30.521Z,1.72
2023-03-07T12:20:18.456Z,1.71
2023-03-07T12:25:31.421Z,1.73
2023-03-07T12:31:08.682Z,1.75
2023-03-07T12:36:37.706Z,1.72
2023-03-07T12:42:02.850Z,1.75
2023-03-07T12:47:32.188Z,1.74
2023-03-07T12:52:48.137Z,1.79
2023-03-07T12:58:24.071Z,1.78
2023-03-07T13:03:40.985Z,1.74
2023-03-07T13:09:00.469Z,1.71
2023-03-07T13:14:04.815Z,1.75
2023-03-07T13:19:35.268Z,1.81
2023-03-07T13:24:44.988Z,1.90
2023-03-07T13:30:04.401Z,2.01
2023-03-07T13:35:09.344Z,2.10
2023-03-07T13:40:51.725Z,2.15
2023-03-07T13:45:58.367Z,2.22
2023-03-07T13:51:00.470Z,2.31
2023-03-07T13:56:14.929Z,2.38
2023-03-07T14:01:38.936Z,2.46
2023-03-07T14:06:52.977Z,2.48
2023-03-07T14:12:31.319Z,2.48
2023-03-07T14:17:45.781Z,2.52
2023-03-07T14:23:46.646Z,2.54
2023-03-07T14:29:12.384Z,2.59
2023-03-07T14:34:35.462Z,2.63
2023-03-07T14:39:37.244Z,2.60
2023-03-07T14:45:19.969Z,2.57
2023-03-07T14:50:26.995Z,2.56
2023-03-07T14:55:38.266Z,2.56
2023-03-07T15:00:40.132Z,2.56
2023-03-07T15:05:47.862Z,2.53
2023-03-07T15:11:18.716Z,2.45
2023-03-07T15:16:42.620Z,2.38
2023-03-07T15:21:55.577Z,2.37
2023-03-07T15:26:59.153Z,2.38
2023-03-07T15:32:08.436Z,2.40
2023-03-07T15:37:26.964Z,2.38
2023-03-07T15:42:29.705Z,2.31
2023-03-07T15:47:33.656Z,2.23
2023-03-07T15:52:38.974Z,2.15
2023-03-07T15:57:52.961Z,2.12
2023-03-07T16:03:31.953Z,2.12
2023-03-07T16:08:33.957Z,2.11
2023-03-07T16:13:43.392Z,2.12
2023-03-07T16:18:45.901Z,2.13
2023-03-07T16:23:47.900Z,2.11
2023-03-07T16:28:54.383Z,2.07
2023-03-07T16:33:58.191Z,1.97
2023-03-07T16:39:00.273Z,1.91
2023-03-07T16:44:02.248Z,1.86
2023-03-07T16:49:04.540Z,1.87
2023-03-07T16:54:06.918Z,1.89
2023-03-07T16:59:15.155Z,1.85
2023-03-07T17:04:17.951Z,1.83
2023-03-07T17:09:19.969Z,1.81
2023-03-07T17:14:22.009Z,1.77
2023-03-07T17:19:31.785Z,1.73
2023-03-07T17:24:33.692Z,1.71
2023-03-07T17:29:49.806Z,1.74
2023-03-07T17:34:51.639Z,1.82
2023-03-07T17:39:54.031Z,1.89
2023-03-07T17:44:55.802Z,1.91
2023-03-07T17:49:58.467Z,1.88
2023-03-07T17:55:01.211Z,1.83
2023-03-07T18:00:12.002Z,1.79
2023-03-07T18:05:13.965Z,1.80
2023-03-07T18:10:16.453Z,1.86
2023-03-07T18:15:21.205Z,1.96
2023-03-07T18:20:25.021Z,2.05
2023-03-07T18:25:26.908Z,2.11
2023-03-07T18:30:28.977Z,2.13
2023-03-07T18:35:31.110Z,2.16
2023-03-07T18:40:33.352Z,2.18
2023-03-07T18:45:35.221Z,1.88
2023-03-07T18:50:37.925Z,1.60
2023-03-07T18:55:39.797Z,1.47
2023-03-07T19:00:41.939Z,1.42
2023-03-07T19:05:49.661Z,1.40
2023-03-07T19:10:51.683Z,1.43
2023-03-07T19:16:06.737Z,1.44
2023-03-07T19:21:21.450Z,1.39
2023-03-07T19:26:24.269Z,1.35
2023-03-07T19:31:32.244Z,1.35
2023-03-07T19:36:34.868Z,1.35
2023-03-07T19:41:37.355Z,1.32
2023-03-07T19:46:45.579Z,1.31
2023-03-07T19:51:47.453Z,1.36
2023-03-07T19:56:49.326Z,1.39
2023-03-07T20:01:51.637Z,1.38
2023-03-07T20:06:53.819Z,1.35
2023-03-07T20:11:55.672Z,1.32
2023-03-07T20:16:57.488Z,1.34
2023-03-07T20:21:59.444Z,1.36
2023-03-07T20:27:02.247Z,1.42
2023-03-07T20:32:04.247Z,1.47
2023-03-07T20:37:06.299Z,1.49
2023-03-07T20:42:08.069Z,1.42
2023-03-07T20:47:10.053Z,1.36
2023-03-07T20:52:12.237Z,1.34
2023-03-07T20:57:14.132Z,1.36
2023-03-07T21:02:15.994Z,1.36
2023-03-07T21:07:18.081Z,1.30
2023-03-07T21:12:19.794Z,1.26
2023-03-07T21:17:21.757Z,1.27
2023-03-07T21:22:23.814Z,1.27
2023-03-07T21:27:27.458Z,1.26
2023-03-07T21:32:29.292Z,1.22
2023-03-07T21:37:33.755Z,1.24
2023-03-07T21:42:35.823Z,1.23
2023-03-07T21:47:38.417Z,1.19
2023-03-07T21:52:40.606Z,1.13
2023-03-07T21:57:43.201Z,1.09
2023-03-07T22:02:45.376Z,1.10
2023-03-07T22:07:49.785Z,1.11
2023-03-07T22:12:51.493Z,1.14
2023-03-07T22:17:53.696Z,1.13
2023-03-07T22:22:55.451Z,1.11
2023-03-07T22:27:57.323Z,1.10
2023-03-07T22:32:59.747Z,1.10
2023-03-07T22:38:01.486Z,1.06
2023-03-07T22:43:03.260Z,1.03
2023-03-07T22:48:05.867Z,1.02
2023-03-07T22:53:07.636Z,1.04
2023-03-07T22:58:11.565Z,1.04
2023-03-07T23:03:13.369Z,1.02
2023-03-07T23:08:15.941Z,0.97
2023-03-07T23:13:17.722Z,0.93
2023-03-07T23:18:19.784Z,0.90
2023-03-07T23:23:21.586Z,0.85
2023-03-07T23:28:23.538Z,0.83
2023-03-07T23:33:26.242Z,0.83
2023-03-07T23:38:29.601Z,0.82
2023-03-07T23:43:31.529Z,0.83
2023-03-07T23:48:33.511Z,0.83
2023-03-07T23:53:35.382Z,0.85
2023-03-07T23:58:37.992Z,0.86
